Time;durP1;ratioP1;P1;durP2;ratioP2;P2;SDS_P1;SDS_P2;PMS_P1;PMS_P2;Temp;Humidity;BMP_temperature;BMP_pressure;BME280_temperature;BME280_humidity;BME280_pressure;Samples;Min_cycle;Max_cycle;Signal;HPM_P1;HPM_P2
2022/10/17 00:01:41;;;;;;;;;;;;;;;;;;4955681;28;19914;-81
2022/10/17 00:04:08;;;;;;;;;;;;;;;;;;4969974;28;20344;-81
2022/10/17 00:06:34;;;;;;;;;;;;;;;;;;4982875;28;19961;-81
2022/10/17 00:09:00;;;;;;;;;;;;;;;;;;4968482;28;20063;-80
2022/10/17 00:11:26;;;;;;;;;;;;;;;;;;4972288;28;19960;-80
2022/10/17 00:13:52;;;;;;;;;;;;;;;;;;4975147;28;20468;-81
2022/10/17 00:16:18;;;;;;;;;;;;;;;;;;4977190;28;19953;-80
2022/10/17 00:18:45;;;;;;;;;;;;;;;;;;4976444;28;19961;-81
2022/10/17 00:21:11;;;;;;;;;;;;;;;;;;4987360;28;21997;-81
2022/10/17 00:23:37;;;;;;;;;;;;;;;;;;4986991;28;19957;-81
2022/10/17 00:26:03;;;;;;;;;;;;;;;;;;4986312;28;20383;-82
2022/10/17 00:28:29;;;;;;;;;;;;;;;;;;4955370;28;19961;-81
2022/10/17 00:30:56;;;;;;;;;;;;;;;;;;4968584;28;19913;-81
2022/10/17 00:33:22;;;;;;;;;;;;;;;;;;4987112;28;19977;-81
2022/10/17 00:35:48;;;;;;;;;;;;;;;;;;4967183;28;19968;-81
2022/10/17 00:38:14;;;;;;;;;;;;;;;;;;4985187;28;19964;-81
2022/10/17 00:40:40;;;;;;;;;;;;;;;;;;4953417;28;19945;-82
2022/10/17 00:43:07;;;;;;;;;;;;;;;;;;4967340;28;19957;-82
2022/10/17 00:45:33;;;;;;;;;;;;;;;;;;4989846;28;19918;-82
2022/10/17 00:47:59;;;;;;;;;;;;;;;;;;4994804;28;19918;-81
2022/10/17 00:50:25;;;;;;;;;;;;;;;;;;4996543;28;19914;-82
2022/10/17 00:52:51;;;;;;;;;;;;;;;;;;4999640;28;19914;-81
2022/10/17 00:55:18;;;;;;;;;;;;;;;;;;4986396;28;20907;-81
2022/10/17 00:57:44;;;;;;;;;;;;;;;;;;4971971;28;19921;-81
2022/10/17 01:00:11;;;;;;;;;;;;;;;;;;4983685;28;19918;-81
2022/10/17 01:02:37;;;;;;;;;;;;;;;;;;4990126;28;19921;-82
2022/10/17 01:05:03;;;;;;;;;;;;;;;;;;4961265;28;19961;-81
2022/10/17 01:07:30;;;;;;;;;;;;;;;;;;4985570;28;19918;-84
2022/10/17 01:09:56;;;;;;;;;;;;;;;;;;4969532;28;20389;-82
2022/10/17 01:12:22;;;;;;;;;;;;;;;;;;4992210;28;19969;-81
2022/10/17 01:14:48;;;;;;;;;;;;;;;;;;4984477;28;19965;-81
2022/10/17 01:17:17;;;;;;;;;;;;;;;;;;4985209;28;19981;-81
2022/10/17 01:19:43;;;;;;;;;;;;;;;;;;4996449;28;19972;-81
2022/10/17 01:22:10;;;;;;;;;;;;;;;;;;4978131;28;19952;-82
2022/10/17 01:24:36;;;;;;;;;;;;;;;;;;4979918;28;20361;-82
2022/10/17 01:27:02;;;;;;;;;;;;;;;;;;4985870;28;19969;-82
2022/10/17 01:29:29;;;;;;;;;;;;;;;;;;4964012;28;21849;-82
2022/10/17 01:31:55;;;;;;;;;;;;;;;;;;4987499;28;20330;-82
2022/10/17 01:34:22;;;;;;;;;;;;;;;;;;4972244;28;19913;-83
2022/10/17 01:36:49;;;;;;;;;;;;;;;;;;4993118;28;19969;-81
2022/10/17 01:39:15;;;;;;;;;;;;;;;;;;4988331;28;20392;-82
2022/10/17 01:41:41;;;;;;;;;;;;;;;;;;4984602;28;19972;-81
2022/10/17 01:44:07;;;;;;;;;;;;;;;;;;4988579;28;19964;-81
2022/10/17 01:46:34;;;;;;;;;;;;;;;;;;4983777;28;19957;-81
2022/10/17 01:49:00;;;;;;;;;;;;;;;;;;4968907;28;19925;-80
2022/10/17 01:51:26;;;;;;;;;;;;;;;;;;4970926;28;19949;-80
2022/10/17 01:53:52;;;;;;;;;;;;;;;;;;4953853;28;19993;-81
2022/10/17 01:56:18;;;;;;;;;;;;;;;;;;4977404;28;19968;-82
2022/10/17 01:58:44;;;;;;;;;;;;;;;;;;4977373;28;19964;-82
2022/10/17 02:01:11;;;;;;;;;;;;;;;;;;4971703;28;19993;-82
2022/10/17 02:03:37;;;;;;;;;;;;;;;;;;4977157;28;19918;-82
2022/10/17 02:06:03;;;;;;;;;;;;;;;;;;4970861;28;19965;-81
2022/10/17 02:08:29;;;;;;;;;;;;;;;;;;4971283;28;19953;-82
2022/10/17 02:10:56;;;;;;;;;;;;;;;;;;4970874;28;19928;-81
2022/10/17 02:13:22;;;;;;;;;;;;;;;;;;4995753;28;19972;-81
2022/10/17 02:15:48;;;;;;;;;;;;;;;;;;4971110;28;19945;-80
2022/10/17 02:18:15;;;;;;;;;;;;;;;;;;4971927;28;19968;-81
2022/10/17 02:20:41;;;;;;;;;;;;;;;;;;4989065;28;19922;-80
2022/10/17 02:23:07;;;;;;;;;;;;;;;;;;4974225;28;20616;-81
2022/10/17 02:25:33;;;;;;;;;;;;;;;;;;4976169;28;19921;-83
2022/10/17 02:28:00;;;;;;;;;;;;;;;;;;4953787;28;19925;-82
2022/10/17 02:30:26;;;;;;;;;;;;;;;;;;4964241;28;20394;-83
2022/10/17 02:32:53;;;;;;;;;;;;;;;;;;4974854;28;19925;-81
2022/10/17 02:35:19;;;;;;;;;;;;;;;;;;4972282;28;19964;-83
2022/10/17 02:37:45;;;;;;;;;;;;;;;;;;4965010;28;20008;-82
2022/10/17 02:40:13;;;;;;;;;;;;;;;;;;4966269;28;19954;-81
2022/10/17 02:42:39;;;;;;;;;;;;;;;;;;4972936;28;20022;-81
2022/10/17 02:45:06;;;;;;;;;;;;;;;;;;4965506;28;19954;-81
2022/10/17 02:47:32;;;;;;;;;;;;;;;;;;4987960;28;20389;-81
2022/10/17 02:49:58;;;;;;;;;;;;;;;;;;4952280;28;19950;-80
2022/10/17 02:52:24;;;;;;;;;;;;;;;;;;4983155;28;19971;-81
2022/10/17 02:54:51;;;;;;;;;;;;;;;;;;4971938;28;19922;-81
2022/10/17 02:57:17;;;;;;;;;;;;;;;;;;4986757;28;20003;-81
2022/10/17 02:59:44;;;;;;;;;;;;;;;;;;4988538;28;19965;-81
2022/10/17 03:02:10;;;;;;;;;;;;;;;;;;4985320;28;19960;-82
2022/10/17 03:04:36;;;;;;;;;;;;;;;;;;4987675;28;19991;-82
2022/10/17 03:07:02;;;;;;;;;;;;;;;;;;4953279;28;19922;-80
2022/10/17 03:09:28;;;;;;;;;;;;;;;;;;4970595;28;19949;-81
2022/10/17 03:11:55;;;;;;;;;;;;;;;;;;4970839;28;20605;-83
2022/10/17 03:14:21;;;;;;;;;;;;;;;;;;4973363;28;20298;-82
2022/10/17 03:16:47;;;;;;;;;;;;;;;;;;4970598;28;19956;-83
2022/10/17 03:19:13;;;;;;;;;;;;;;;;;;4976462;28;20223;-83
2022/10/17 03:21:39;;;;;;;;;;;;;;;;;;4993338;28;19953;-84
2022/10/17 03:24:07;;;;;;;;;;;;;;;;;;4985908;28;19965;-82
2022/10/17 03:26:33;;;;;;;;;;;;;;;;;;4952862;28;19930;-83
2022/10/17 03:29:00;;;;;;;;;;;;;;;;;;4987276;28;19960;-82
2022/10/17 03:31:26;;;;;;;;;;;;;;;;;;4954879;28;19914;-81
2022/10/17 03:33:52;;;;;;;;;;;;;;;;;;4977270;28;19968;-80
2022/10/17 03:36:18;;;;;;;;;;;;;;;;;;4999393;28;19949;-81
2022/10/17 03:38:45;;;;;;;;;;;;;;;;;;4970930;28;20392;-81
2022/10/17 03:41:11;;;;;;;;;;;;;;;;;;4988166;28;19957;-82
2022/10/17 03:43:38;;;;;;;;;;;;;;;;;;4974341;28;19917;-82
2022/10/17 03:46:04;;;;;;;;;;;;;;;;;;4975203;28;20330;-80
2022/10/17 03:48:30;;;;;;;;;;;;;;;;;;4957107;28;19953;-78
2022/10/17 03:50:56;;;;;;;;;;;;;;;;;;4972697;28;19922;-78
2022/10/17 03:53:23;;;;;;;;;;;;;;;;;;4984355;28;19965;-79
2022/10/17 03:55:49;;;;;;;;;;;;;;;;;;4983947;28;19948;-77
2022/10/17 03:58:15;;;;;;;;;;;;;;;;;;4983713;28;20333;-79
2022/10/17 04:00:41;;;;;;;;;;;;;;;;;;4984324;28;19925;-78
2022/10/17 04:03:07;;;;;;;;;;;;;;;;;;4983204;28;19954;-78
2022/10/17 04:05:34;;;;;;;;;;;;;;;;;;4990824;28;19957;-80
2022/10/17 04:08:00;;;;;;;;;;;;;;;;;;4981630;28;19922;-79
2022/10/17 04:10:26;;;;;;;;;;;;;;;;;;4986230;28;19956;-79
2022/10/17 04:12:52;;;;;;;;;;;;;;;;;;4968470;28;20029;-78
2022/10/17 04:15:18;;;;;;;;;;;;;;;;;;4985944;28;19929;-78
2022/10/17 04:17:45;;;;;;;;;;;;;;;;;;4986929;28;19968;-78
2022/10/17 04:20:11;;;;;;;;;;;;;;;;;;4987514;28;20334;-79
2022/10/17 04:22:37;;;;;;;;;;;;;;;;;;4954960;28;20632;-80
2022/10/17 04:25:03;;;;;;;;;;;;;;;;;;4988648;28;20608;-79
2022/10/17 04:27:29;;;;;;;;;;;;;;;;;;4985827;28;19934;-78
2022/10/17 04:29:56;;;;;;;;;;;;;;;;;;4985382;28;20439;-79
2022/10/17 04:32:22;;;;;;;;;;;;;;;;;;4985615;28;19917;-80
2022/10/17 04:34:49;;;;;;;;;;;;;;;;;;4987230;28;19937;-82
2022/10/17 04:37:15;;;;;;;;;;;;;;;;;;4977520;28;19974;-81
2022/10/17 04:39:41;;;;;;;;;;;;;;;;;;4978325;28;19997;-80
2022/10/17 04:42:07;;;;;;;;;;;;;;;;;;4987259;28;19926;-78
2022/10/17 04:44:34;;;;;;;;;;;;;;;;;;4988727;28;19964;-79
2022/10/17 04:47:00;;;;;;;;;;;;;;;;;;4968725;28;20298;-79
2022/10/17 04:49:26;;;;;;;;;;;;;;;;;;4969286;28;19950;-79
2022/10/17 04:51:53;;;;;;;;;;;;;;;;;;4988407;28;20051;-79
2022/10/17 04:54:19;;;;;;;;;;;;;;;;;;4990299;28;19953;-79
2022/10/17 04:56:46;;;;;;;;;;;;;;;;;;4985986;28;19957;-78
2022/10/17 04:59:12;;;;;;;;;;;;;;;;;;4966711;28;19969;-78
2022/10/17 05:01:38;;;;;;;;;;;;;;;;;;4986352;28;19960;-77
2022/10/17 05:04:04;;;;;;;;;;;;;;;;;;4990750;28;19925;-79
2022/10/17 05:06:31;;;;;;;;;;;;;;;;;;4992196;28;19956;-78
2022/10/17 05:08:58;;;;;;;;;;;;;;;;;;4973560;28;19957;-79
2022/10/17 05:11:24;;;;;;;;;;;;;;;;;;4981171;28;20577;-79
2022/10/17 05:13:50;;;;;;;;;;;;;;;;;;4984158;28;19953;-78
2022/10/17 05:16:16;;;;;;;;;;;;;;;;;;4956892;28;19972;-78
2022/10/17 05:18:42;;;;;;;;;;;;;;;;;;4986645;28;19993;-78
2022/10/17 05:21:09;;;;;;;;;;;;;;;;;;4957812;28;20022;-78
2022/10/17 05:23:35;;;;;;;;;;;;;;;;;;4978365;28;20411;-79
2022/10/17 05:26:01;;;;;;;;;;;;;;;;;;4991479;28;19978;-79
2022/10/17 05:28:27;;;;;;;;;;;;;;;;;;4995880;28;19942;-79
2022/10/17 05:30:53;;;;;;;;;;;;;;;;;;4980875;28;19958;-79
2022/10/17 05:33:20;;;;;;;;;;;;;;;;;;4971878;28;19953;-80
2022/10/17 05:35:46;;;;;;;;;;;;;;;;;;4989248;28;19965;-80
2022/10/17 05:38:12;;;;;;;;;;;;;;;;;;4988395;28;19999;-79
2022/10/17 05:40:38;;;;;;;;;;;;;;;;;;4989863;28;19972;-80
2022/10/17 05:43:05;;;;;;;;;;;;;;;;;;4988931;28;20012;-79
2022/10/17 05:45:31;;;;;;;;;;;;;;;;;;4993684;28;20356;-79
2022/10/17 05:47:57;;;;;;;;;;;;;;;;;;4995681;28;19957;-79
2022/10/17 05:50:24;;;;;;;;;;;;;;;;;;4973039;28;19953;-79
2022/10/17 05:52:50;;;;;;;;;;;;;;;;;;4987762;28;20362;-78
2022/10/17 05:55:16;;;;;;;;;;;;;;;;;;4956941;28;19945;-79
2022/10/17 05:57:42;;;;;;;;;;;;;;;;;;4973897;28;20463;-78
2022/10/17 06:00:08;;;;;;;;;;;;;;;;;;4982783;28;19973;-80
2022/10/17 06:02:35;;;;;;;;;;;;;;;;;;4974433;28;19957;-78
2022/10/17 06:05:01;;;;;;;;;;;;;;;;;;4966519;28;19949;-78
2022/10/17 06:07:27;;;;;;;;;;;;;;;;;;4972519;28;20041;-78
2022/10/17 06:09:53;;;;;;;;;;;;;;;;;;4996193;28;19966;-78
2022/10/17 06:12:19;;;;;;;;;;;;;;;;;;4990442;28;19918;-78
2022/10/17 06:14:46;;;;;;;;;;;;;;;;;;4989316;28;20297;-78
2022/10/17 06:17:12;;;;;;;;;;;;;;;;;;4989417;28;20515;-78
2022/10/17 06:19:40;;;;;;;;;;;;;;;;;;4989628;28;19969;-78
2022/10/17 06:22:06;;;;;;;;;;;;;;;;;;4988464;28;19953;-78
2022/10/17 06:24:32;;;;;;;;;;;;;;;;;;4990716;28;19980;-77
2022/10/17 06:26:58;;;;;;;;;;;;;;;;;;4962616;28;19972;-78
2022/10/17 06:29:24;;;;;;;;;;;;;;;;;;4988902;28;19945;-78
2022/10/17 06:31:51;;;;;;;;;;;;;;;;;;4987961;28;20390;-78
2022/10/17 06:34:17;;;;;;;;;;;;;;;;;;4945613;28;19949;-78
2022/10/17 06:36:43;;;;;;;;;;;;;;;;;;4971319;28;20044;-78
2022/10/17 06:39:10;;;;;;;;;;;;;;;;;;4970105;28;20764;-78
2022/10/17 06:41:36;;;;;;;;;;;;;;;;;;4954910;28;19953;-78
2022/10/17 06:44:08;;;;;;;;;;;;;;;;;;4986236;28;19918;-78
2022/10/17 06:46:34;;;;;;;;;;;;;;;;;;4982267;28;19964;-78
2022/10/17 06:49:00;;;;;;;;;;;;;;;;;;4960532;28;19969;-79
2022/10/17 06:51:27;;;;;;;;;;;;;;;;;;4976630;28;19945;-79
2022/10/17 06:53:53;;;;;;;;;;;;;;;;;;4945066;28;19917;-79
2022/10/17 06:56:19;;;;;;;;;;;;;;;;;;4987551;28;19961;-78
2022/10/17 06:58:46;;;;;;;;;;;;;;;;;;4962221;28;19957;-79
2022/10/17 07:01:13;;;;;;;;;;;;;;;;;;4973807;28;19965;-78
2022/10/17 07:03:39;;;;;;;;;;;;;;;;;;4971827;28;19953;-78
2022/10/17 07:06:06;;;;;;;;;;;;;;;;;;4991402;28;19965;-78
2022/10/17 07:08:32;;;;;;;;;;;;;;;;;;4975235;28;19964;-77
2022/10/17 07:10:58;;;;;;;;;;;;;;;;;;4987035;28;19945;-77
2022/10/17 07:13:24;;;;;;;;;;;;;;;;;;4981451;28;19957;-78
2022/10/17 07:15:51;;;;;;;;;;;;;;;;;;4986264;28;20484;-78
2022/10/17 07:18:17;;;;;;;;;;;;;;;;;;4969324;28;19964;-77
2022/10/17 07:20:43;;;;;;;;;;;;;;;;;;4978471;28;20023;-78
2022/10/17 07:23:09;;;;;;;;;;;;;;;;;;4977982;28;19922;-78
2022/10/17 07:25:36;;;;;;;;;;;;;;;;;;4980296;28;19925;-79
2022/10/17 07:28:02;;;;;;;;;;;;;;;;;;4987035;28;19918;-79
2022/10/17 07:30:29;;;;;;;;;;;;;;;;;;4984237;28;19922;-80
2022/10/17 07:32:55;;;;;;;;;;;;;;;;;;4994938;28;19968;-80
2022/10/17 07:35:21;;;;;;;;;;;;;;;;;;4961674;28;19993;-81
2022/10/17 07:37:47;;;;;;;;;;;;;;;;;;4948480;28;19993;-80
2022/10/17 07:40:13;;;;;;;;;;;;;;;;;;4988112;28;19930;-79
2022/10/17 07:42:40;;;;;;;;;;;;;;;;;;4989704;28;19953;-79
2022/10/17 07:45:06;;;;;;;;;;;;;;;;;;4993711;28;19949;-79
2022/10/17 07:47:34;;;;;;;;;;;;;;;;;;4957541;28;20052;-79
2022/10/17 07:50:00;;;;;;;;;;;;;;;;;;4986204;28;20344;-79
2022/10/17 07:52:26;;;;;;;;;;;;;;;;;;4986812;28;19961;-79
2022/10/17 07:54:53;;;;;;;;;;;;;;;;;;4987855;28;19953;-80
2022/10/17 07:57:19;;;;;;;;;;;;;;;;;;4979897;28;19956;-80
2022/10/17 07:59:46;;;;;;;;;;;;;;;;;;4988426;28;19965;-79
2022/10/17 08:02:13;;;;;;;;;;;;;;;;;;4962101;28;20378;-80
2022/10/17 08:04:39;;;;;;;;;;;;;;;;;;4970877;28;19960;-81
2022/10/17 08:07:05;;;;;;;;;;;;;;;;;;4978422;28;19961;-80
2022/10/17 08:09:32;;;;;;;;;;;;;;;;;;4984938;28;19964;-79
2022/10/17 08:11:58;;;;;;;;;;;;;;;;;;4983596;28;19949;-79
2022/10/17 08:14:24;;;;;;;;;;;;;;;;;;4954326;28;20326;-80
2022/10/17 08:16:51;;;;;;;;;;;;;;;;;;4970964;28;19968;-79
2022/10/17 08:19:17;;;;;;;;;;;;;;;;;;4965622;28;21298;-81
2022/10/17 08:21:45;;;;;;;;;;;;;;;;;;4952943;28;19961;-79
2022/10/17 08:24:11;;;;;;;;;;;;;;;;;;4968477;28;19972;-80
2022/10/17 08:26:38;;;;;;;;;;;;;;;;;;4986827;28;19934;-80
2022/10/17 08:29:04;;;;;;;;;;;;;;;;;;4974743;28;19972;-81
2022/10/17 08:31:30;;;;;;;;;;;;;;;;;;4969449;28;19958;-81
2022/10/17 08:33:56;;;;;;;;;;;;;;;;;;4990550;28;19957;-80
2022/10/17 08:36:23;;;;;;;;;;;;;;;;;;4974281;28;20504;-79
2022/10/17 08:38:49;;;;;;;;;;;;;;;;;;4984617;28;19972;-79
2022/10/17 08:41:15;;;;;;;;;;;;;;;;;;4985231;28;19964;-79
2022/10/17 08:43:41;;;;;;;;;;;;;;;;;;4986989;28;19949;-80
2022/10/17 08:46:08;;;;;;;;;;;;;;;;;;4952115;28;20404;-81
2022/10/17 08:48:34;;;;;;;;;;;;;;;;;;4953739;28;20392;-80
2022/10/17 08:51:01;;;;;;;;;;;;;;;;;;4968383;28;19957;-80
2022/10/17 08:53:28;;;;;;;;;;;;;;;;;;4972974;28;19981;-80
2022/10/17 08:55:54;;;;;;;;;;;;;;;;;;4960415;28;20290;-79
2022/10/17 08:58:20;;;;;;;;;;;;;;;;;;4987120;28;19984;-79
2022/10/17 09:00:46;;;;;;;;;;;;;;;;;;4972353;28;19990;-79
2022/10/17 09:03:12;;;;;;;;;;;;;;;;;;4967027;28;20381;-79
2022/10/17 09:05:40;;;;;;;;;;;;;;;;;;4991895;28;20021;-78
2022/10/17 09:08:06;;;;;;;;;;;;;;;;;;4972991;28;19957;-79
2022/10/17 09:10:32;;;;;;;;;;;;;;;;;;4973463;28;19918;-79
2022/10/17 09:12:58;;;;;;;;;;;;;;;;;;4973803;28;19949;-79
2022/10/17 09:15:25;;;;;;;;;;;;;;;;;;4963826;28;19953;-79
2022/10/17 09:17:51;;;;;;;;;;;;;;;;;;4973387;28;20671;-79
2022/10/17 09:20:17;;;;;;;;;;;;;;;;;;4988212;28;20409;-79
2022/10/17 09:22:43;;;;;;;;;;;;;;;;;;4960525;28;19957;-80
2022/10/17 09:25:10;;;;;;;;;;;;;;;;;;4983787;28;20366;-79
2022/10/17 09:27:36;;;;;;;;;;;;;;;;;;4980884;28;19938;-80
2022/10/17 09:30:02;;;;;;;;;;;;;;;;;;4994291;28;19914;-80
2022/10/17 09:32:28;;;;;;;;;;;;;;;;;;4961035;28;19960;-80
2022/10/17 09:34:55;;;;;;;;;;;;;;;;;;4971999;28;20011;-79
2022/10/17 09:37:21;;;;;;;;;;;;;;;;;;4958827;28;19964;-79
2022/10/17 09:39:47;;;;;;;;;;;;;;;;;;4971336;28;20270;-80
2022/10/17 09:42:13;;;;;;;;;;;;;;;;;;4970126;28;19922;-80
2022/10/17 09:44:40;;;;;;;;;;;;;;;;;;4991475;28;19922;-79
2022/10/17 09:47:06;;;;;;;;;;;;;;;;;;4987163;28;19925;-80
2022/10/17 09:49:33;;;;;;;;;;;;;;;;;;4988593;28;19960;-78
2022/10/17 09:51:59;;;;;;;;;;;;;;;;;;4955295;28;20518;-75
2022/10/17 09:54:25;;;;;;;;;;;;;;;;;;4971754;28;19968;-74
2022/10/17 09:56:51;;;;;;;;;;;;;;;;;;4973695;28;20396;-76
2022/10/17 09:59:17;;;;;;;;;;;;;;;;;;4987002;28;21296;-75
2022/10/17 10:01:43;;;;;;;;;;;;;;;;;;4989245;28;20389;-75
2022/10/17 10:04:10;;;;;;;;;;;;;;;;;;4974405;28;19953;-75
2022/10/17 10:06:36;;;;;;;;;;;;;;;;;;4989414;28;20393;-75
2022/10/17 10:09:04;;;;;;;;;;;;;;;;;;4988384;28;19930;-75
2022/10/17 10:11:30;;;;;;;;;;;;;;;;;;4986448;28;19922;-75
2022/10/17 10:13:56;;;;;;;;;;;;;;;;;;4987951;28;20393;-75
2022/10/17 10:16:23;;;;;;;;;;;;;;;;;;4970833;28;19918;-75
2022/10/17 10:18:49;;;;;;;;;;;;;;;;;;4971432;28;20334;-75
2022/10/17 10:21:15;;;;;;;;;;;;;;;;;;4990933;28;19968;-75
2022/10/17 10:23:41;;;;;;;;;;;;;;;;;;4979486;28;19969;-76
2022/10/17 10:26:08;;;;;;;;;;;;;;;;;;4987767;28;20373;-75
2022/10/17 10:28:34;;;;;;;;;;;;;;;;;;4978516;28;20385;-76
2022/10/17 10:31:00;;;;;;;;;;;;;;;;;;4987676;28;19922;-74
2022/10/17 10:33:27;;;;;;;;;;;;;;;;;;4979321;28;19961;-76
2022/10/17 10:35:53;;;;;;;;;;;;;;;;;;4975630;28;19922;-75
2022/10/17 10:38:19;;;;;;;;;;;;;;;;;;4988251;28;20400;-75
2022/10/17 10:40:45;;;;;;;;;;;;;;;;;;4987926;28;20421;-75
2022/10/17 10:43:11;;;;;;;;;;;;;;;;;;4986814;28;20413;-75
2022/10/17 10:45:38;;;;;;;;;;;;;;;;;;4999510;28;20052;-75
2022/10/17 10:48:04;;;;;;;;;;;;;;;;;;4986435;28;20389;-77
2022/10/17 10:50:30;;;;;;;;;;;;;;;;;;4974286;28;19949;-75
2022/10/17 10:52:56;;;;;;;;;;;;;;;;;;4987930;28;19925;-75
2022/10/17 10:55:23;;;;;;;;;;;;;;;;;;4989543;28;19977;-75
2022/10/17 10:57:49;;;;;;;;;;;;;;;;;;4976892;28;19960;-75
2022/10/17 11:00:15;;;;;;;;;;;;;;;;;;4987432;28;19948;-75
2022/10/17 11:02:41;;;;;;;;;;;;;;;;;;4988277;28;19949;-75
2022/10/17 11:05:07;;;;;;;;;;;;;;;;;;4987426;28;19976;-75
2022/10/17 11:07:33;;;;;;;;;;;;;;;;;;4988967;28;19964;-76
2022/10/17 11:10:00;;;;;;;;;;;;;;;;;;4970474;28;20392;-75
2022/10/17 11:12:26;;;;;;;;;;;;;;;;;;4988767;28;19972;-76
2022/10/17 11:14:52;;;;;;;;;;;;;;;;;;4973241;28;20361;-75
2022/10/17 11:17:18;;;;;;;;;;;;;;;;;;4984778;28;20658;-75
2022/10/17 11:19:44;;;;;;;;;;;;;;;;;;4995096;28;19957;-75
2022/10/17 11:22:10;;;;;;;;;;;;;;;;;;4986757;28;19952;-76
2022/10/17 11:24:37;;;;;;;;;;;;;;;;;;4988593;28;19961;-76
2022/10/17 11:27:03;;;;;;;;;;;;;;;;;;4987291;28;19929;-75
2022/10/17 11:29:29;;;;;;;;;;;;;;;;;;4956479;28;20640;-75
2022/10/17 11:31:55;;;;;;;;;;;;;;;;;;4972889;28;19924;-76
2022/10/17 11:34:21;;;;;;;;;;;;;;;;;;4980479;28;19952;-76
2022/10/17 11:36:48;;;;;;;;;;;;;;;;;;4973895;28;19959;-75
2022/10/17 11:39:14;;;;;;;;;;;;;;;;;;4969966;28;20289;-75
2022/10/17 11:41:40;;;;;;;;;;;;;;;;;;4984326;28;19917;-75
2022/10/17 11:44:06;;;;;;;;;;;;;;;;;;4973518;28;20360;-75
2022/10/17 11:46:33;;;;;;;;;;;;;;;;;;4989912;28;19973;-75
2022/10/17 11:48:59;;;;;;;;;;;;;;;;;;4987478;28;19953;-75
2022/10/17 11:51:25;;;;;;;;;;;;;;;;;;4971634;28;19915;-75
2022/10/17 11:53:52;;;;;;;;;;;;;;;;;;4989080;28;19957;-75
2022/10/17 11:56:18;;;;;;;;;;;;;;;;;;4987166;28;22077;-76
2022/10/17 11:58:45;;;;;;;;;;;;;;;;;;4988353;28;19980;-76
2022/10/17 12:01:11;;;;;;;;;;;;;;;;;;4986369;28;19960;-78
2022/10/17 12:03:37;;;;;;;;;;;;;;;;;;4988339;28;19922;-75
2022/10/17 12:06:03;;;;;;;;;;;;;;;;;;4984644;28;19969;-75
2022/10/17 12:08:30;;;;;;;;;;;;;;;;;;4988200;28;19957;-75
2022/10/17 12:10:56;;;;;;;;;;;;;;;;;;4997089;28;20392;-75
2022/10/17 12:13:22;;;;;;;;;;;;;;;;;;4967611;28;19946;-76
2022/10/17 12:15:48;;;;;;;;;;;;;;;;;;4986277;28;19968;-75
2022/10/17 12:18:14;;;;;;;;;;;;;;;;;;4987300;28;19949;-76
2022/10/17 12:20:41;;;;;;;;;;;;;;;;;;4987553;28;20432;-75
2022/10/17 12:23:07;;;;;;;;;;;;;;;;;;4986847;28;20436;-75
2022/10/17 12:25:33;;;;;;;;;;;;;;;;;;4991066;28;19968;-75
2022/10/17 12:27:59;;;;;;;;;;;;;;;;;;4973553;28;19953;-74
2022/10/17 12:30:25;;;;;;;;;;;;;;;;;;4970786;28;19949;-75
2022/10/17 12:32:52;;;;;;;;;;;;;;;;;;4987264;28;19960;-75
2022/10/17 12:35:18;;;;;;;;;;;;;;;;;;4969244;28;20733;-75
2022/10/17 12:37:44;;;;;;;;;;;;;;;;;;4978533;28;19961;-75
2022/10/17 12:40:10;;;;;;;;;;;;;;;;;;4959966;28;20360;-76
2022/10/17 12:42:36;;;;;;;;;;;;;;;;;;4986358;28;19965;-75
2022/10/17 12:45:03;;;;;;;;;;;;;;;;;;4977299;28;19941;-75
2022/10/17 12:47:29;;;;;;;;;;;;;;;;;;4987512;28;19973;-75
2022/10/17 12:49:55;;;;;;;;;;;;;;;;;;4968136;28;19953;-75
2022/10/17 12:52:21;;;;;;;;;;;;;;;;;;4973398;28;19957;-75
2022/10/17 12:54:47;;;;;;;;;;;;;;;;;;4986525;28;19953;-75
2022/10/17 12:57:14;;;;;;;;;;;;;;;;;;4971313;28;19983;-75
2022/10/17 12:59:40;;;;;;;;;;;;;;;;;;4987271;28;19980;-75
2022/10/17 13:02:06;;;;;;;;;;;;;;;;;;4968818;28;20007;-76
2022/10/17 13:04:32;;;;;;;;;;;;;;;;;;4969918;28;19953;-76
2022/10/17 13:07:00;;;;;;;;;;;;;;;;;;4986287;28;20015;-76
2022/10/17 13:09:26;;;;;;;;;;;;;;;;;;4969663;28;20254;-76
2022/10/17 13:11:52;;;;;;;;;;;;;;;;;;4970389;28;19950;-76
2022/10/17 13:14:19;;;;;;;;;;;;;;;;;;4969291;28;19980;-77
2022/10/17 13:16:45;;;;;;;;;;;;;;;;;;4987344;28;19960;-75
2022/10/17 13:19:11;;;;;;;;;;;;;;;;;;4968458;28;20417;-76
2022/10/17 13:21:37;;;;;;;;;;;;;;;;;;4970852;28;19965;-75
2022/10/17 13:24:03;;;;;;;;;;;;;;;;;;4968732;28;19972;-76
2022/10/17 13:26:29;;;;;;;;;;;;;;;;;;4969137;28;19983;-76
2022/10/17 13:28:56;;;;;;;;;;;;;;;;;;4984947;28;19961;-75
2022/10/17 13:31:22;;;;;;;;;;;;;;;;;;4987355;28;19921;-76
2022/10/17 13:33:48;;;;;;;;;;;;;;;;;;4973571;28;20108;-76
2022/10/17 13:36:14;;;;;;;;;;;;;;;;;;4968937;28;19958;-77
2022/10/17 13:38:40;;;;;;;;;;;;;;;;;;4968976;28;20341;-76
2022/10/17 13:41:07;;;;;;;;;;;;;;;;;;4978486;28;19968;-76
2022/10/17 13:43:33;;;;;;;;;;;;;;;;;;4993579;28;19962;-76
2022/10/17 13:46:01;;;;;;;;;;;;;;;;;;4988086;28;19956;-76
2022/10/17 13:48:27;;;;;;;;;;;;;;;;;;4990264;28;20369;-75
2022/10/17 13:50:54;;;;;;;;;;;;;;;;;;4989610;28;19941;-75
2022/10/17 13:53:20;;;;;;;;;;;;;;;;;;4991408;28;19945;-75
2022/10/17 13:55:46;;;;;;;;;;;;;;;;;;4993937;28;20381;-76
2022/10/17 13:58:12;;;;;;;;;;;;;;;;;;4992923;28;19957;-74
2022/10/17 14:00:38;;;;;;;;;;;;;;;;;;4979850;28;19961;-76
2022/10/17 14:03:04;;;;;;;;;;;;;;;;;;4978399;28;19987;-76
2022/10/17 14:05:32;;;;;;;;;;;;;;;;;;4955750;28;20157;-76
2022/10/17 14:07:58;;;;;;;;;;;;;;;;;;4966729;28;19968;-75
2022/10/17 14:10:26;;;;;;;;;;;;;;;;;;4989943;28;19945;-75
2022/10/17 14:12:53;;;;;;;;;;;;;;;;;;4991642;28;20412;-76
2022/10/17 14:15:19;;;;;;;;;;;;;;;;;;4969364;28;19961;-76
2022/10/17 14:17:45;;;;;;;;;;;;;;;;;;4971923;28;19949;-76
2022/10/17 14:20:11;;;;;;;;;;;;;;;;;;4970525;28;20459;-75
2022/10/17 14:22:38;;;;;;;;;;;;;;;;;;4980678;28;19965;-76
2022/10/17 14:25:04;;;;;;;;;;;;;;;;;;4985974;28;20469;-75
2022/10/17 14:27:30;;;;;;;;;;;;;;;;;;4970677;28;19968;-76
2022/10/17 14:29:59;;;;;;;;;;;;;;;;;;4990741;28;19953;-75
2022/10/17 14:32:25;;;;;;;;;;;;;;;;;;4974180;28;19920;-75
2022/10/17 14:34:52;;;;;;;;;;;;;;;;;;4992954;28;19945;-76
2022/10/17 14:37:18;;;;;;;;;;;;;;;;;;4970793;28;19917;-76
2022/10/17 14:39:44;;;;;;;;;;;;;;;;;;4974314;28;20044;-76
2022/10/17 14:42:10;;;;;;;;;;;;;;;;;;4988891;28;19922;-76
2022/10/17 14:44:36;;;;;;;;;;;;;;;;;;4974892;28;19953;-76
2022/10/17 14:47:03;;;;;;;;;;;;;;;;;;4988578;28;20003;-76
2022/10/17 14:49:29;;;;;;;;;;;;;;;;;;4972253;28;19953;-76
2022/10/17 14:51:55;;;;;;;;;;;;;;;;;;4988652;28;19964;-75
2022/10/17 14:54:21;;;;;;;;;;;;;;;;;;4987929;28;20377;-75
2022/10/17 14:56:47;;;;;;;;;;;;;;;;;;4988169;28;19940;-77
2022/10/17 14:59:16;;;;;;;;;;;;;;;;;;4988885;28;19976;-76
2022/10/17 15:01:42;;;;;;;;;;;;;;;;;;4988782;28;19922;-78
2022/10/17 15:04:09;;;;;;;;;;;;;;;;;;4969049;28;19960;-77
2022/10/17 15:06:35;;;;;;;;;;;;;;;;;;4988000;28;20448;-78
2022/10/17 15:09:03;;;;;;;;;;;;;;;;;;4968859;28;19972;-77
2022/10/17 15:11:29;;;;;;;;;;;;;;;;;;4988435;28;19922;-77
2022/10/17 15:13:55;;;;;;;;;;;;;;;;;;4986685;28;20549;-74
2022/10/17 15:16:22;;;;;;;;;;;;;;;;;;4971365;28;19924;-77
2022/10/17 15:18:48;;;;;;;;;;;;;;;;;;4978346;28;19964;-76
2022/10/17 15:21:14;;;;;;;;;;;;;;;;;;4969053;28;20353;-75
2022/10/17 15:23:41;;;;;;;;;;;;;;;;;;4987391;28;20389;-76
2022/10/17 15:26:07;;;;;;;;;;;;;;;;;;4986227;28;19969;-76
2022/10/17 15:28:33;;;;;;;;;;;;;;;;;;4973498;28;19941;-76
2022/10/17 15:30:59;;;;;;;;;;;;;;;;;;4969360;28;19961;-76
2022/10/17 15:33:26;;;;;;;;;;;;;;;;;;4990022;28;19957;-76
2022/10/17 15:35:52;;;;;;;;;;;;;;;;;;4989447;28;19953;-76
2022/10/17 15:38:18;;;;;;;;;;;;;;;;;;4969913;28;20001;-76
2022/10/17 15:40:47;;;;;;;;;;;;;;;;;;4986659;28;20322;-76
2022/10/17 15:43:13;;;;;;;;;;;;;;;;;;4986890;28;19968;-75
2022/10/17 15:45:40;;;;;;;;;;;;;;;;;;4986874;28;19961;-76
2022/10/17 15:48:06;;;;;;;;;;;;;;;;;;4955507;28;20333;-76
2022/10/17 15:50:32;;;;;;;;;;;;;;;;;;4987939;28;19961;-75
2022/10/17 15:52:58;;;;;;;;;;;;;;;;;;4984375;28;19968;-75
2022/10/17 15:55:25;;;;;;;;;;;;;;;;;;4985234;28;19953;-75
2022/10/17 15:57:51;;;;;;;;;;;;;;;;;;4984867;28;19957;-75
2022/10/17 16:00:17;;;;;;;;;;;;;;;;;;4985575;28;19922;-76
2022/10/17 16:02:43;;;;;;;;;;;;;;;;;;4972153;28;19984;-74
2022/10/17 16:05:09;;;;;;;;;;;;;;;;;;4983684;28;19957;-75
2022/10/17 16:07:36;;;;;;;;;;;;;;;;;;4974436;28;20328;-76
2022/10/17 16:10:02;;;;;;;;;;;;;;;;;;4985479;28;19957;-76
2022/10/17 16:12:29;;;;;;;;;;;;;;;;;;4986546;28;20416;-76
2022/10/17 16:14:56;;;;;;;;;;;;;;;;;;4971011;28;20469;-75
2022/10/17 16:17:22;;;;;;;;;;;;;;;;;;4985508;28;19949;-76
2022/10/17 16:19:48;;;;;;;;;;;;;;;;;;4985443;28;19942;-75
2022/10/17 16:22:15;;;;;;;;;;;;;;;;;;4985380;28;20015;-76
2022/10/17 16:24:41;;;;;;;;;;;;;;;;;;4987135;28;20346;-77
2022/10/17 16:27:07;;;;;;;;;;;;;;;;;;4987262;28;19968;-76
2022/10/17 16:29:33;;;;;;;;;;;;;;;;;;4969465;28;20032;-78
2022/10/17 16:31:59;;;;;;;;;;;;;;;;;;4961296;28;19979;-74
2022/10/17 16:34:26;;;;;;;;;;;;;;;;;;4968450;28;20699;-75
2022/10/17 16:36:52;;;;;;;;;;;;;;;;;;4965129;28;19917;-77
2022/10/17 16:39:18;;;;;;;;;;;;;;;;;;4965145;28;19972;-77